• Join FlightAware (Why Join?)
  • Login
  • US Flag 
01:59PM EDT


 

Airport Tracker/Info


-or-


 

Live Flight TrackerFlight Track Log ✈ EJM685 ✈ 16-Jul-2013 ✈ KSTP - KDVK

Flight Track Log - Related Links

Times and Time Zones

All times are in EDT time to prevent confusion due to time zone crossing. See the EJM685 flight status page for this flight to view local times or setup timezone preferences in your user account.

Time Position Orientation Groundspeed Altitude Reporting Facility
EDT Latitude Longitude Course Direction KTS MPH feet Rate Location/Type
10:55AM 44.9833 -93.0667 115° Southeast 216 249 2,600  Level Minneapolis TRACON
10:55AM 44.9833 -93.0000 90° East 235 270 4,000 2,520 Climbing Minneapolis TRACON
10:56AM 44.9167 -92.9333 145° Southeast 277 319 7,400 3,300 Climbing Minneapolis TRACON
10:58AM 44.8314 -92.8897 160° South 307 353 11,500 3,120 Climbing Minneapolis Center
10:59AM 44.7494 -92.8119 146° Southeast 350 403 14,700 2,820 Climbing Minneapolis Center
11:00AM 44.4379 -92.6804 115° Southeast  Level FlightAware Approximate
11:00AM 44.6614 -92.7350 148° Southeast 368 423 17,400  Level Minneapolis Center
11:01AM 44.5703 -92.6556 148° Southeast 380 437 20,000 2,400 Climbing Minneapolis Center
11:02AM 44.4750 -92.5706 148° Southeast 398 458 22,400 2,760 Climbing Minneapolis Center
11:03AM 44.3547 -92.4622 147° Southeast 424 488 25,800 2,940 Climbing Minneapolis Center
11:04AM 44.2842 -92.3211 125° Southeast 444 511 28,600 2,280 Climbing Minneapolis Center
11:05AM 44.2203 -92.1717 121° Southeast 447 514 30,600 1,620 Climbing Minneapolis Center
11:06AM 44.1517 -92.0164 122° Southeast 465 535 32,000 1,800 Climbing Minneapolis Center
11:07AM 44.0822 -91.8572 121° Southeast 475 547 34,400 2,700 Climbing Minneapolis Center
11:08AM 44.0167 -91.7031 121° Southeast 469 540 37,600 2,700 Climbing Minneapolis Center
11:09AM 43.9386 -91.5258 121° Southeast 463 533 40,100 2,220 Climbing Minneapolis Center
11:10AM 43.8617 -91.3881 128° Southeast 457 526 42,200 1,740 Climbing Minneapolis Center
11:11AM 43.7747 -91.2744 137° Southeast 440 506 43,800 1,020 Climbing Minneapolis Center
11:12AM 43.6917 -91.1575 134° Southeast 432 497 44,400 480 Climbing Minneapolis Center
11:13AM 43.6031 -91.0358 135° Southeast 443 510 44,900 360 Climbing Minneapolis Center
11:14AM 43.5492 -90.9608 135° Southeast 453 521 45,000 60 Climbing Chicago Center
11:15AM 43.4578 -90.8347 135° Southeast 464 534 45,000  Level Chicago Center
11:15AM 43.4031 -90.7589 135° Southeast 465 535 45,000  Level Minneapolis Center
11:16AM 43.3672 -90.7097 135° Southeast 463 533 45,000  Level Chicago Center
11:17AM 43.2575 -90.5600 135° Southeast 465 535 45,000  Level Chicago Center
11:18AM 43.1658 -90.4333 135° Southeast 468 539 45,000  Level Chicago Center
11:19AM 43.0719 -90.3075 136° Southeast 472 543 45,000  Level Chicago Center
11:20AM 42.9806 -90.1819 135° Southeast 470 541 45,000  Level Chicago Center
11:21AM 42.8883 -90.0606 136° Southeast 466 536 45,000  Level Chicago Center
11:22AM 42.7989 -89.9378 135° Southeast 462 532 45,000  Level Chicago Center
11:23AM 42.7022 -89.8083 135° Southeast 451 519 45,000  Level Chicago Center
11:24AM 42.5975 -89.6683 135° Southeast 452 520 45,000  Level Chicago Center
11:25AM 42.5072 -89.5497 136° Southeast 453 521 45,000  Level Chicago Center
11:26AM 42.4167 -89.4311 136° Southeast 454 522 45,000  Level Chicago Center
11:27AM 42.3275 -89.3114 135° Southeast 453 521 45,000  Level Chicago Center
11:28AM 42.2381 -89.1950 136° Southeast 449 517 45,000  Level Chicago Center
11:29AM 42.1333 -89.0575 136° Southeast 450 518 45,000  Level Chicago Center
11:30AM 42.0500 -88.9500 136° Southeast 447 514 45,000  Level Chicago Center
11:31AM 41.9631 -88.8339 135° Southeast 444 511 45,000  Level Chicago Center
11:32AM 41.8731 -88.7219 137° Southeast 445 512 45,000  Level Chicago Center
11:33AM 41.7525 -88.6131 146° Southeast 440 506 45,000  Level Chicago Center
11:34AM 41.6492 -88.5217 147° Southeast 447 514 45,000  Level Chicago Center
11:35AM 41.5467 -88.4308 146° Southeast 448 516 45,000  Level Chicago Center
11:36AM 41.4453 -88.3408 146° Southeast 447 514 45,000  Level Chicago Center
11:38AM 41.3214 -88.2367 148° Southeast 450 518 45,000  Level Chicago Center
11:39AM 41.2175 -88.1453 146° Southeast 462 532 45,000  Level Chicago Center
11:40AM 41.1161 -88.0536 146° Southeast 452 520 45,000  Level Chicago Center
11:41AM 41.0153 -87.9658 147° Southeast 443 510 45,000  Level Chicago Center
11:42AM 40.9114 -87.8775 147° Southeast 444 511 45,000  Level Chicago Center
11:43AM 40.7883 -87.7700 147° Southeast 445 512 45,000  Level Chicago Center
11:44AM 40.6861 -87.6814 147° Southeast 444 511 45,000  Level Chicago Center
11:45AM 40.5847 -87.5936 147° Southeast 442 509 45,000  Level Chicago Center
11:46AM 40.4833 -87.5064 147° Southeast 439 505 45,000  Level Chicago Center
11:47AM 40.3800 -87.4197 147° Southeast 440 506 45,000  Level Chicago Center
11:48AM 40.2756 -87.3336 148° Southeast 444 511 45,000  Level Chicago Center
11:49AM 40.1489 -87.2267 147° Southeast 452 520 45,000 -120 Level Chicago Center
11:50AM 40.0428 -87.1403 148° Southeast 451 519 44,800 -1,020 Descending Chicago Center
11:51AM 39.9361 -87.0525 148° Southeast 456 525 43,000 -1,800 Descending Chicago Center
11:52AM 39.8308 -86.9672 148° Southeast 451 519 41,200 -1,800 Descending Chicago Center
11:53AM 39.7236 -86.8797 148° Southeast 456 525 39,300 -1,860 Descending Chicago Center
11:54AM 39.6214 -86.7867 145° Southeast 455 524 37,400 -1,620 Descending Chicago Center
11:55AM 39.5111 -86.6558 138° Southeast 452 520 36,100 -1,620 Descending Chicago Center
11:56AM 39.4178 -86.5472 138° Southeast 455 524 34,100 -1,980 Descending Chicago Center
11:57AM 39.3244 -86.4339 137° Southeast 463 533 32,100 -1,920 Descending Chicago Center
11:58AM 39.2031 -86.3133 142° Southeast 466 536 29,700 -2,280 Descending Indianapolis Center
11:59AM 39.0844 -86.1983 143° Southeast 450 518 26,900 -2,520 Descending Indianapolis Center
12:00PM 38.9889 -86.1056 143° Southeast 434 499 24,600 -1,440 Descending Indianapolis Center
12:01PM 38.8989 -86.0175 143° Southeast 414 476 24,000 -540 Descending Indianapolis Center
12:02PM 38.8069 -85.9294 143° Southeast 415 478 23,500 -1,440 Descending Indianapolis Center
12:04PM 38.7172 -85.8431 143° Southeast 407 468 21,100 -2,400 Descending Indianapolis Center
12:05PM 38.6286 -85.7583 143° Southeast 401 461 18,600 -2,520 Descending Indianapolis Center
12:06PM 38.5269 -85.6619 143° Southeast 384 442 16,000 -2,520 Descending Indianapolis Center
12:07PM 38.4456 -85.5861 144° Southeast 366 421 13,500 -2,280 Descending Indianapolis Center
12:08PM 38.3672 -85.5250 149° Southeast 336 387 11,400 -1,620 Descending Indianapolis Center
12:09PM 38.2975 -85.4731 150° Southeast 299 344 10,200 -1,140 Descending Indianapolis Center
12:10PM 38.2289 -85.4172 147° Southeast 293 337 9,100 -1,200 Descending Indianapolis Center
12:11PM 38.1642 -85.3703 150° Southeast 275 316 7,800 -1,380 Descending Indianapolis Center
12:12PM 38.0897 -85.3103 148° Southeast 272 313 6,300 -900 Descending Indianapolis Center
12:13PM 38.0269 -85.2575 146° Southeast 271 312 6,000 -180 Descending Indianapolis Center
12:14PM 37.9597 -85.2142 153° Southeast 268 308 6,000 -300 Level Indianapolis Center
12:15PM 37.8931 -85.1675 151° Southeast 271 312 5,500 -1,140 Descending Indianapolis Center
12:16PM 37.8297 -85.1133 146° Southeast 274 315 3,700 -1,020 Descending Indianapolis Center
12:17PM 37.7697 -85.0656 148° Southeast 274 315 3,500 -360 Descending Indianapolis Center
12:18PM 37.7067 -85.0069 144° Southeast 238 274 3,000 -300 Descending Indianapolis Center
12:19PM 37.6703 -84.9619 136° Southeast 196 226 3,000  Level Indianapolis Center
12:20PM 37.6414 -84.9058 123° Southeast 193 222 3,000 -180 Level Indianapolis Center
12:21PM 37.6156 -84.8514 121° Southeast 179 206 2,700 -300 Descending Indianapolis Center
12:23PM 37.5776 -84.7695 142° Southeast  Level Estimated
12:30PM 37.5776 -84.7695 142° Southeast  Level Estimated
12:31PM 37.5776 -84.7695 142° Southeast  Level Estimated
12:32PM 37.5776 -84.7695 142° Southeast  Level Estimated